Time;durP1;ratioP1;P1;durP2;ratioP2;P2;SDS_P1;SDS_P2;PMS_P1;PMS_P2;Temp;Humidity;BMP_temperature;BMP_pressure;BME280_temperature;BME280_humidity;BME280_pressure;Samples;Min_cycle;Max_cycle;Signal;HPM_P1;HPM_P2
2021/03/07 00:00:51;;;;;;;11.30;6.73;;;3.90;80.60;;;;;;5070536;28;20045;-72
2021/03/07 00:03:17;;;;;;;11.37;6.50;;;3.90;80.60;;;;;;5074036;28;20059;-72
2021/03/07 00:05:43;;;;;;;11.97;6.70;;;3.90;80.70;;;;;;5075460;28;20053;-73
2021/03/07 00:08:09;;;;;;;11.93;6.37;;;3.90;80.70;;;;;;5074748;28;20317;-72
2021/03/07 00:10:34;;;;;;;9.43;5.77;;;3.90;80.70;;;;;;5075674;28;20083;-72
2021/03/07 00:13:00;;;;;;;13.03;6.13;;;3.90;80.80;;;;;;5075229;28;20052;-72
2021/03/07 00:15:26;;;;;;;10.60;5.70;;;3.90;80.80;;;;;;5074412;28;20074;-72
2021/03/07 00:17:52;;;;;;;10.23;5.93;;;3.90;80.80;;;;;;5074932;28;20132;-72
2021/03/07 00:20:22;;;;;;;8.60;5.33;;;4.00;80.80;;;;;;5075053;28;20119;-72
2021/03/07 00:22:48;;;;;;;11.37;6.20;;;4.00;81.60;;;;;;5074639;28;20049;-72
2021/03/07 00:25:15;;;;;;;9.80;5.87;;;4.00;80.50;;;;;;5074871;28;20763;-70
2021/03/07 00:27:42;;;;;;;10.00;5.20;;;4.00;80.30;;;;;;5074681;28;20640;-70
2021/03/07 00:30:13;;;;;;;7.03;4.80;;;4.00;80.20;;;;;;5073999;28;20295;-70
2021/03/07 00:32:39;;;;;;;8.02;5.68;;;4.10;80.30;;;;;;5074920;28;20347;-71
2021/03/07 00:35:06;;;;;;;10.20;5.23;;;4.10;80.00;;;;;;5074647;28;20045;-71
2021/03/07 00:37:32;;;;;;;9.50;4.67;;;4.10;80.00;;;;;;5074164;28;20310;-71
2021/03/07 00:39:57;;;;;;;9.03;4.60;;;4.00;80.00;;;;;;5074450;28;20302;-70
2021/03/07 00:42:23;;;;;;;8.17;4.53;;;4.00;79.90;;;;;;5074589;28;20048;-71
2021/03/07 00:44:49;;;;;;;8.53;5.20;;;4.00;80.00;;;;;;5073753;28;20048;-71
2021/03/07 00:47:16;;;;;;;6.43;3.93;;;4.10;80.10;;;;;;5074610;28;20048;-70
2021/03/07 00:49:42;;;;;;;8.73;4.50;;;4.10;80.00;;;;;;5074208;28;20324;-71
2021/03/07 00:52:07;;;;;;;6.60;4.57;;;4.10;80.00;;;;;;5074326;28;20299;-71
2021/03/07 00:54:33;;;;;;;5.07;3.73;;;4.10;79.90;;;;;;5074549;28;20467;-70
2021/03/07 00:56:59;;;;;;;8.77;4.03;;;4.20;79.80;;;;;;5073562;28;20055;-71
2021/03/07 00:59:25;;;;;;;6.50;3.60;;;4.20;79.50;;;;;;5074013;28;20481;-71
2021/03/07 01:01:50;;;;;;;8.20;4.20;;;4.20;79.40;;;;;;5074259;28;20398;-71
2021/03/07 01:04:16;;;;;;;5.23;3.70;;;4.20;79.50;;;;;;5073514;28;20072;-71
2021/03/07 01:06:43;;;;;;;7.17;4.07;;;4.20;79.40;;;;;;5074083;28;20044;-71
2021/03/07 01:09:09;;;;;;;8.53;4.20;;;4.30;79.40;;;;;;5074115;28;20797;-71
2021/03/07 01:11:34;;;;;;;7.57;4.13;;;4.30;79.20;;;;;;5073589;28;20086;-71
2021/03/07 01:14:01;;;;;;;10.00;3.90;;;4.30;79.10;;;;;;5073613;28;20511;-71
2021/03/07 01:16:27;;;;;;;7.23;4.27;;;4.30;79.00;;;;;;5074259;28;20048;-71
2021/03/07 01:18:53;;;;;;;7.20;3.73;;;4.30;78.80;;;;;;5073287;28;20290;-71
2021/03/07 01:21:18;;;;;;;5.83;3.80;;;4.30;78.60;;;;;;5073987;28;20041;-71
2021/03/07 01:23:44;;;;;;;8.47;4.20;;;4.40;78.60;;;;;;5073748;28;20074;-71
2021/03/07 01:26:10;;;;;;;8.30;3.87;;;4.40;78.50;;;;;;5073020;28;20044;-70
2021/03/07 01:28:36;;;;;;;7.60;3.43;;;4.40;78.40;;;;;;5073846;28;20059;-70
2021/03/07 01:31:02;;;;;;;8.03;3.60;;;4.40;79.10;;;;;;5073514;28;20048;-70
2021/03/07 01:33:28;;;;;;;6.97;4.63;;;4.40;78.10;;;;;;5073179;28;20055;-70
2021/03/07 01:35:53;;;;;;;8.70;4.27;;;4.40;77.80;;;;;;5073720;28;20286;-70
2021/03/07 01:38:19;;;;;;;6.10;4.17;;;4.40;77.60;;;;;;5073166;28;20218;-70
2021/03/07 01:40:48;;;;;;;5.93;3.23;;;4.40;77.60;;;;;;5072881;28;20052;-70
2021/03/07 01:43:15;;;;;;;5.73;3.93;;;4.40;78.60;;;;;;5073315;28;20044;-71
2021/03/07 01:45:42;;;;;;;7.40;3.50;;;4.40;77.70;;;;;;5073268;28;20755;-71
2021/03/07 01:48:10;;;;;;;6.80;3.80;;;4.40;77.60;;;;;;5072519;28;20791;-71
2021/03/07 01:50:40;;;;;;;6.13;3.53;;;4.40;77.50;;;;;;5073673;28;20714;-71
2021/03/07 01:53:06;;;;;;;7.03;3.17;;;4.30;77.40;;;;;;5072551;28;20299;-71
2021/03/07 01:55:34;;;;;;;9.87;3.27;;;4.30;77.40;;;;;;5073458;28;20755;-71
2021/03/07 01:58:04;;;;;;;8.20;3.73;;;4.30;77.50;;;;;;5073085;28;20299;-71
2021/03/07 02:00:30;;;;;;;6.33;3.80;;;4.30;77.30;;;;;;5072814;28;20322;-71
2021/03/07 02:02:57;;;;;;;5.53;2.80;;;4.30;78.00;;;;;;5073028;28;20338;-71
2021/03/07 02:05:23;;;;;;;7.10;3.13;;;4.30;77.20;;;;;;5072993;28;20056;-71
2021/03/07 02:07:50;;;;;;;7.60;3.57;;;4.30;77.20;;;;;;5072285;28;20330;-71
2021/03/07 02:10:38;;;;;;;7.37;3.83;;;4.30;77.30;;;;;;5072860;28;20302;-71
2021/03/07 02:13:33;;;;;;;6.30;3.47;;;4.30;77.60;;;;;;5072309;28;20302;-71
2021/03/07 02:16:04;;;;;;;5.63;3.40;;;4.30;77.60;;;;;;5072085;28;20338;-71
2021/03/07 02:18:33;;;;;;;4.97;2.90;;;4.30;77.50;;;;;;5072938;28;20721;-71
2021/03/07 02:21:04;;;;;;;10.00;3.70;;;4.30;78.10;;;;;;5072528;28;20545;-71
2021/03/07 02:23:39;;;;;;;4.78;3.47;;;4.30;77.30;;;;;;5072340;28;20309;-71
2021/03/07 02:26:05;;;;;;;5.87;2.93;;;4.30;77.30;;;;;;5072021;28;20478;-71
2021/03/07 02:28:31;;;;;;;5.87;2.80;;;4.30;77.50;;;;;;5072136;28;20309;-70
2021/03/07 02:30:57;;;;;;;5.17;3.00;;;4.40;77.30;;;;;;5072524;28;20074;-71
2021/03/07 02:33:22;;;;;;;7.83;2.80;;;4.30;77.30;;;;;;5072295;28;20050;-71
2021/03/07 02:35:59;;;;;;;6.10;3.00;;;4.20;77.60;;;;;;5071775;28;20086;-71
2021/03/07 02:38:25;;;;;;;7.53;3.37;;;4.30;77.70;;;;;;5072170;28;20052;-70
2021/03/07 02:40:55;;;;;;;5.97;3.00;;;4.30;77.70;;;;;;5072115;28;20832;-71
2021/03/07 02:43:22;;;;;;;5.17;2.67;;;4.20;77.90;;;;;;5071481;28;20360;-71
2021/03/07 02:45:50;;;;;;;6.13;2.90;;;4.20;78.00;;;;;;5072002;28;20786;-71
2021/03/07 02:48:22;;;;;;;3.97;2.90;;;4.20;78.10;;;;;;5072280;28;20344;-70
2021/03/07 02:50:48;;;;;;;;;;;4.20;78.20;;;;;;5071872;28;20299;-71
2021/03/07 02:53:22;;;;;;;4.07;2.63;;;4.20;78.00;;;;;;5072020;28;19928;-71
2021/03/07 02:55:55;;;;;;;6.07;3.20;;;4.20;78.40;;;;;;5071954;28;20049;-71
2021/03/07 02:58:24;;;;;;;3.97;2.60;;;4.10;78.60;;;;;;5071006;28;20385;-71
2021/03/07 03:00:55;;;;;;;5.40;2.90;;;4.20;78.60;;;;;;5072044;28;20299;-71
2021/03/07 03:03:26;;;;;;;6.10;3.00;;;4.10;78.60;;;;;;5071474;28;20298;-71
2021/03/07 03:05:52;;;;;;;;;;;4.20;78.60;;;;;;5072290;28;20048;-71
2021/03/07 03:08:19;;;;;;;5.33;2.87;;;4.20;78.70;;;;;;5071782;28;19920;-71
2021/03/07 03:10:47;;;;;;;4.87;2.67;;;4.10;78.50;;;;;;5070908;28;20298;-71
2021/03/07 03:13:13;;;;;;;5.50;2.60;;;4.10;78.50;;;;;;5071715;28;20647;-71
2021/03/07 03:15:39;;;;;;;4.50;2.63;;;4.20;78.50;;;;;;5071789;28;20302;-71
2021/03/07 03:18:07;;;;;;;7.10;2.53;;;4.20;78.50;;;;;;5070967;28;20044;-71
2021/03/07 03:20:33;;;;;;;5.57;3.03;;;4.20;78.50;;;;;;5071895;28;20302;-71
2021/03/07 03:22:59;;;;;;;4.87;2.83;;;4.20;78.60;;;;;;5071614;28;20298;-71
2021/03/07 03:25:25;;;;;;;6.97;3.67;;;4.20;78.60;;;;;;5070781;28;20450;-71
2021/03/07 03:27:53;;;;;;;5.23;2.80;;;4.20;78.60;;;;;;5071673;28;20045;-71
2021/03/07 03:30:20;;;;;;;6.60;2.37;;;4.20;78.50;;;;;;5071577;28;20052;-71
2021/03/07 03:32:46;;;;;;;5.97;2.93;;;4.20;78.50;;;;;;5071012;28;20295;-71
2021/03/07 03:35:17;;;;;;;4.43;2.30;;;4.20;79.50;;;;;;5071402;28;20357;-71
2021/03/07 03:37:45;;;;;;;7.28;2.70;;;4.20;78.60;;;;;;5070297;28;20079;-71
2021/03/07 03:40:16;;;;;;;4.17;2.60;;;4.10;78.60;;;;;;5070926;28;20072;-71
2021/03/07 03:42:44;;;;;;;5.15;2.40;;;4.10;78.60;;;;;;5071438;28;20337;-71
2021/03/07 03:45:11;;;;;;;5.57;2.53;;;4.10;78.70;;;;;;5071296;28;20190;-71
2021/03/07 03:47:42;;;;;;;3.70;2.60;;;4.10;78.70;;;;;;5071015;28;20653;-71
2021/03/07 03:50:10;;;;;;;5.10;2.40;;;4.20;78.50;;;;;;5071211;28;20399;-71
2021/03/07 03:52:37;;;;;;;3.93;2.67;;;4.20;78.50;;;;;;5070727;28;20299;-71
2021/03/07 03:55:19;;;;;;;5.33;2.50;;;4.20;78.40;;;;;;5070997;28;20322;-71
2021/03/07 03:57:48;;;;;;;5.15;2.78;;;4.20;78.30;;;;;;5071370;28;20381;-71
2021/03/07 04:00:17;;;;;;;6.27;2.80;;;4.10;78.40;;;;;;5070336;28;20618;-71
2021/03/07 04:02:45;;;;;;;4.37;2.90;;;4.10;78.30;;;;;;5071055;28;20299;-71
2021/03/07 04:05:15;;;;;;;4.50;2.83;;;4.20;78.40;;;;;;5071054;28;20368;-71
2021/03/07 04:07:41;;;;;;;3.23;2.07;;;4.20;78.10;;;;;;5070145;28;20647;-71
2021/03/07 04:10:08;;;;;;;4.83;2.70;;;4.30;77.90;;;;;;5071275;28;20298;-71
2021/03/07 04:12:37;;;;;;;4.57;2.33;;;4.30;77.70;;;;;;5071334;28;20709;-71
2021/03/07 04:15:03;;;;;;;5.93;2.00;;;4.30;77.50;;;;;;5070011;28;20352;-71
2021/03/07 04:17:30;;;;;;;3.30;2.57;;;4.30;77.30;;;;;;5071216;28;20305;-70
2021/03/07 04:19:56;;;;;;;2.23;1.40;;;4.30;77.30;;;;;;5070973;28;20353;-71
2021/03/07 04:22:23;;;;;;;4.20;2.27;;;4.30;77.10;;;;;;5070108;28;20775;-71
2021/03/07 04:24:49;;;;;;;2.53;2.10;;;4.40;76.90;;;;;;5070797;28;20809;-70
2021/03/07 04:27:16;;;;;;;2.67;1.70;;;4.50;76.90;;;;;;5070849;28;20364;-70
2021/03/07 04:29:43;;;;;;;7.87;2.50;;;4.50;77.40;;;;;;5070071;28;20307;-71
2021/03/07 04:32:10;;;;;;;5.43;2.33;;;4.50;76.20;;;;;;5070734;28;20377;-72
2021/03/07 04:34:36;;;;;;;7.00;2.57;;;4.50;76.00;;;;;;5070936;28;20795;-71
2021/03/07 04:37:06;;;;;;;4.07;2.20;;;4.50;75.90;;;;;;5069474;28;20850;-71
2021/03/07 04:39:32;;;;;;;4.80;2.07;;;4.50;75.70;;;;;;5071095;28;20351;-70
2021/03/07 04:41:59;;;;;;;6.00;2.07;;;4.50;75.70;;;;;;5070032;28;20382;-71
2021/03/07 04:44:25;;;;;;;3.60;2.03;;;4.50;75.70;;;;;;5070539;28;20299;-71
2021/03/07 04:46:51;;;;;;;6.17;2.40;;;4.50;75.70;;;;;;5070852;28;20314;-71
2021/03/07 04:49:16;;;;;;;3.67;2.37;;;4.60;75.60;;;;;;5072577;28;20041;-71
2021/03/07 04:51:42;;;;;;;4.70;2.20;;;4.50;75.40;;;;;;5074471;28;20127;-71
2021/03/07 04:54:08;;;;;;;4.80;2.07;;;4.50;75.40;;;;;;5074347;28;20051;-71
2021/03/07 04:56:34;;;;;;;3.40;2.00;;;4.50;75.20;;;;;;5073939;28;20071;-71
2021/03/07 04:58:59;;;;;;;4.00;2.30;;;4.50;75.40;;;;;;5074115;28;20356;-71
2021/03/07 05:01:25;;;;;;;2.87;2.10;;;4.50;75.40;;;;;;5074330;28;20087;-70
2021/03/07 05:03:52;;;;;;;3.60;2.07;;;4.50;75.40;;;;;;5073571;28;20048;-71
2021/03/07 05:06:18;;;;;;;4.73;2.33;;;4.50;75.50;;;;;;5074028;28;20413;-71
2021/03/07 05:08:44;;;;;;;5.67;2.57;;;4.50;75.70;;;;;;5074009;28;20298;-71
2021/03/07 05:11:10;;;;;;;4.67;2.93;;;4.50;75.60;;;;;;5073470;28;20325;-70
2021/03/07 05:13:36;;;;;;;4.17;2.17;;;4.50;75.70;;;;;;5074086;28;20774;-70
2021/03/07 05:16:02;;;;;;;3.53;2.50;;;4.50;75.60;;;;;;5073779;28;20044;-71
2021/03/07 05:18:28;;;;;;;4.90;2.60;;;4.50;75.50;;;;;;5073620;28;20131;-71
2021/03/07 05:20:54;;;;;;;4.23;2.47;;;4.50;75.60;;;;;;5073834;28;20444;-70
2021/03/07 05:23:19;;;;;;;6.07;2.73;;;4.40;75.50;;;;;;5073836;28;20386;-71
2021/03/07 05:25:45;;;;;;;5.80;2.20;;;4.40;75.50;;;;;;5073048;28;20045;-71
2021/03/07 05:28:10;;;;;;;2.77;2.20;;;4.40;75.60;;;;;;5073519;28;20076;-71
2021/03/07 05:30:37;;;;;;;4.80;1.97;;;4.50;75.90;;;;;;5074180;28;20049;-71
2021/03/07 05:33:03;;;;;;;3.23;2.20;;;4.50;76.00;;;;;;5072714;28;20075;-71
2021/03/07 05:35:29;;;;;;;4.80;2.50;;;4.60;75.60;;;;;;5073864;28;20314;-71
2021/03/07 05:37:55;;;;;;;4.93;2.33;;;4.60;75.30;;;;;;5073363;28;20303;-71
2021/03/07 05:40:21;;;;;;;4.00;2.30;;;4.60;75.20;;;;;;5072751;28;20822;-71
2021/03/07 05:42:46;;;;;;;3.90;2.53;;;4.60;75.10;;;;;;5073284;28;20056;-70
2021/03/07 05:45:12;;;;;;;5.03;2.57;;;4.60;75.00;;;;;;5072822;28;20060;-71
2021/03/07 05:47:39;;;;;;;5.03;2.50;;;4.60;75.10;;;;;;5073671;28;20524;-71
2021/03/07 05:50:06;;;;;;;3.37;2.07;;;4.70;74.80;;;;;;5073450;28;20052;-70
2021/03/07 05:52:32;;;;;;;3.93;2.57;;;4.70;74.90;;;;;;5072852;28;20385;-71
2021/03/07 05:54:58;;;;;;;4.20;2.37;;;4.70;74.60;;;;;;5073129;28;20770;-70
2021/03/07 05:57:25;;;;;;;6.07;2.87;;;4.70;74.50;;;;;;5073165;28;20368;-71
2021/03/07 05:59:52;;;;;;;5.33;2.37;;;4.70;74.70;;;;;;5071592;28;20418;-71
2021/03/07 06:02:18;;;;;;;7.23;3.17;;;4.80;74.80;;;;;;5073141;28;20297;-71
2021/03/07 06:04:50;;;;;;;3.87;2.40;;;4.80;74.80;;;;;;5072922;28;20813;-71
2021/03/07 06:07:16;;;;;;;;;;;4.70;74.90;;;;;;5072792;28;20295;-71
2021/03/07 06:09:41;;;;;;;5.40;2.50;;;4.60;75.10;;;;;;5073064;28;19927;-71
2021/03/07 06:12:25;;;;;;;4.67;2.87;;;4.70;75.60;;;;;;5072840;28;20056;-71
2021/03/07 06:15:02;;;;;;;4.17;2.43;;;4.70;75.40;;;;;;5072199;28;20325;-71
2021/03/07 06:17:42;;;;;;;3.80;2.20;;;4.70;75.60;;;;;;5073251;28;20303;-71
2021/03/07 06:20:10;;;;;;;7.07;2.30;;;4.70;76.00;;;;;;5072773;28;20818;-70
2021/03/07 06:22:37;;;;;;;6.23;2.43;;;4.70;76.20;;;;;;5072140;28;20335;-71
2021/03/07 06:25:06;;;;;;;4.90;2.50;;;4.70;76.30;;;;;;5072594;28;20352;-71
2021/03/07 06:27:32;;;;;;;7.23;2.50;;;4.70;76.30;;;;;;5072224;28;20291;-71
2021/03/07 06:30:09;;;;;;;6.90;3.17;;;4.70;76.40;;;;;;5072633;28;20302;-71
2021/03/07 06:32:41;;;;;;;4.03;2.50;;;4.70;76.40;;;;;;5072781;28;20040;-71
2021/03/07 06:35:09;;;;;;;2.83;2.10;;;4.70;76.40;;;;;;5071640;28;20655;-71
2021/03/07 06:37:55;;;;;;;5.77;2.50;;;4.70;76.70;;;;;;5072545;28;20128;-71
2021/03/07 06:40:37;;;;;;;4.60;2.40;;;4.70;76.60;;;;;;5072492;28;20694;-70
2021/03/07 06:43:23;;;;;;;5.07;2.40;;;4.70;76.40;;;;;;5071315;28;20381;-71
2021/03/07 06:45:49;;;;;;;5.20;2.40;;;4.70;76.50;;;;;;5072318;28;20052;-71
2021/03/07 06:48:15;;;;;;;3.80;2.40;;;4.70;76.30;;;;;;5072291;28;20663;-70
2021/03/07 06:50:57;;;;;;;4.67;2.57;;;4.70;76.00;;;;;;5071475;28;20390;-71
2021/03/07 06:53:41;;;;;;;5.13;2.70;;;4.70;75.90;;;;;;5072084;28;20386;-70
2021/03/07 06:56:07;;;;;;;8.60;2.80;;;4.70;75.90;;;;;;5071377;28;20047;-71
2021/03/07 06:58:33;;;;;;;4.80;2.50;;;4.70;75.80;;;;;;5072407;28;20295;-71
2021/03/07 07:00:59;;;;;;;2.50;2.13;;;4.70;75.70;;;;;;5071993;28;20136;-70
2021/03/07 07:03:25;;;;;;;4.37;2.63;;;4.60;75.80;;;;;;5071194;28;20119;-70
2021/03/07 07:05:53;;;;;;;5.40;2.77;;;4.60;75.80;;;;;;5071749;28;20291;-71
2021/03/07 07:08:42;;;;;;;6.43;2.97;;;4.60;75.70;;;;;;5071621;28;20314;-70
2021/03/07 07:11:07;;;;;;;2.70;2.10;;;4.60;75.60;;;;;;5071075;28;20382;-71
2021/03/07 07:13:51;;;;;;;6.83;2.93;;;4.70;75.60;;;;;;5071923;28;20356;-71
2021/03/07 07:16:17;;;;;;;4.53;2.20;;;4.70;75.60;;;;;;5071765;28;20306;-71
2021/03/07 07:18:44;;;;;;;7.57;2.87;;;4.70;75.40;;;;;;5070633;28;20306;-71
2021/03/07 07:21:12;;;;;;;3.83;2.40;;;4.70;76.30;;;;;;5071674;28;20044;-71
2021/03/07 07:23:38;;;;;;;4.97;2.90;;;4.80;75.50;;;;;;5071199;28;20326;-70
2021/03/07 07:26:04;;;;;;;4.23;2.73;;;4.80;75.10;;;;;;5071534;28;20799;-70
2021/03/07 07:28:32;;;;;;;5.03;2.80;;;4.90;74.80;;;;;;5071907;28;20045;-72
2021/03/07 07:31:21;;;;;;;6.57;3.73;;;4.90;74.90;;;;;;5070825;28;21224;-70
2021/03/07 07:33:55;;;;;;;7.37;3.80;;;5.00;74.00;;;;;;5071228;28;20791;-70
2021/03/07 07:36:51;;;;;;;5.77;3.10;;;5.00;74.00;;;;;;5071653;28;20301;-71
2021/03/07 07:39:24;;;;;;;5.07;3.10;;;5.00;73.60;;;;;;5070624;28;20783;-71
2021/03/07 07:41:50;;;;;;;5.77;3.43;;;5.10;73.50;;;;;;5071358;28;20678;-71
2021/03/07 07:44:27;;;;;;;4.40;3.63;;;5.10;73.50;;;;;;5071402;28;20302;-71
2021/03/07 07:47:02;;;;;;;5.53;3.83;;;5.10;73.40;;;;;;5070642;28;20049;-71
2021/03/07 07:49:49;;;;;;;6.70;3.57;;;5.10;73.10;;;;;;5071594;28;20295;-70
2021/03/07 07:52:21;;;;;;;4.93;3.03;;;5.10;72.90;;;;;;5070686;28;20298;-71
2021/03/07 07:55:03;;;;;;;4.32;3.47;;;5.10;73.00;;;;;;5071259;28;20722;-71
2021/03/07 07:57:40;;;;;;;5.57;3.20;;;5.20;72.70;;;;;;5071598;28;20041;-71
2021/03/07 08:00:07;;;;;;;5.47;3.27;;;5.20;72.90;;;;;;5070433;28;20048;-71
2021/03/07 08:02:46;;;;;;;6.13;3.53;;;5.20;72.70;;;;;;5071325;28;20780;-71
2021/03/07 08:05:21;;;;;;;5.60;3.47;;;5.20;72.70;;;;;;5071467;28;20386;-71
2021/03/07 08:07:57;;;;;;;5.60;3.70;;;5.20;72.60;;;;;;5070523;28;20374;-71
2021/03/07 08:10:42;;;;;;;4.27;3.57;;;5.20;72.40;;;;;;5071065;28;20295;-71
2021/03/07 08:13:14;;;;;;;4.67;3.20;;;5.20;72.20;;;;;;5070643;28;20364;-70
2021/03/07 08:15:47;;;;;;;4.80;3.15;;;5.20;72.30;;;;;;5071074;28;20314;-70
2021/03/07 08:18:17;;;;;;;6.00;4.40;;;5.20;72.30;;;;;;5071137;28;20068;-71
2021/03/07 08:20:44;;;;;;;5.10;3.63;;;5.30;72.10;;;;;;5070291;28;20301;-70
2021/03/07 08:23:13;;;;;;;5.13;3.93;;;5.30;72.10;;;;;;5071915;28;20295;-70
2021/03/07 08:25:51;;;;;;;8.57;3.80;;;5.30;71.80;;;;;;5074914;28;20298;-71
2021/03/07 08:28:25;;;;;;;6.17;3.83;;;5.30;71.90;;;;;;5074284;28;20298;-71
2021/03/07 08:31:02;;;;;;;5.33;4.27;;;5.30;71.70;;;;;;5074791;28;20295;-71
2021/03/07 08:33:28;;;;;;;6.77;4.20;;;5.30;71.60;;;;;;5074998;28;20295;-71
2021/03/07 08:36:18;;;;;;;6.27;4.70;;;5.30;71.60;;;;;;5073906;28;20659;-70
2021/03/07 08:38:53;;;;;;;5.03;4.30;;;5.40;71.40;;;;;;5074466;28;20663;-72
2021/03/07 08:41:25;;;;;;;7.10;5.30;;;5.40;71.20;;;;;;5073917;28;20440;-71
2021/03/07 08:43:56;;;;;;;8.33;5.27;;;5.40;71.00;;;;;;5074415;28;20345;-71
2021/03/07 08:46:26;;;;;;;7.47;4.97;;;5.40;70.80;;;;;;5074284;28;20676;-70
2021/03/07 08:48:54;;;;;;;8.57;4.80;;;5.40;70.50;;;;;;5073917;28;20745;-71
2021/03/07 08:51:30;;;;;;;6.40;5.20;;;5.50;70.70;;;;;;5074547;28;20307;-71
2021/03/07 08:54:05;;;;;;;7.30;5.50;;;5.50;70.20;;;;;;5074365;28;20315;-71
2021/03/07 08:56:31;;;;;;;8.87;6.00;;;5.50;70.00;;;;;;5073712;28;20291;-71
2021/03/07 08:58:57;;;;;;;6.80;5.20;;;5.50;69.80;;;;;;5074430;28;20381;-70
2021/03/07 09:01:24;;;;;;;8.00;6.67;;;5.60;69.70;;;;;;5074327;28;20303;-71
2021/03/07 09:04:10;;;;;;;8.33;6.57;;;5.60;69.20;;;;;;5073470;28;20330;-70
2021/03/07 09:06:40;;;;;;;8.53;6.43;;;5.60;68.90;;;;;;5074244;28;20653;-71
2021/03/07 09:09:12;;;;;;;10.10;5.80;;;5.70;69.20;;;;;;5073246;28;20763;-70
2021/03/07 09:11:51;;;;;;;7.77;5.10;;;5.70;68.60;;;;;;5074423;28;20295;-71
2021/03/07 09:14:25;;;;;;;8.13;6.00;;;5.70;68.40;;;;;;5073849;28;20315;-71
2021/03/07 09:16:51;;;;;;;24.47;21.87;;;5.70;68.70;;;;;;5073180;28;20690;-72
2021/03/07 09:19:25;;;;;;;7.30;6.00;;;5.70;68.40;;;;;;5073795;28;20340;-71
2021/03/07 09:22:15;;;;;;;6.93;5.53;;;5.70;68.20;;;;;;5074090;28;20091;-70
2021/03/07 09:24:56;;;;;;;8.23;6.03;;;5.80;67.70;;;;;;5073040;28;20299;-71
2021/03/07 09:27:42;;;;;;;5.97;5.37;;;5.80;67.90;;;;;;5073445;28;20873;-71
2021/03/07 09:30:14;;;;;;;9.53;6.00;;;5.90;67.90;;;;;;5073664;28;20774;-71
2021/03/07 09:32:45;;;;;;;7.18;5.75;;;5.90;67.80;;;;;;5073927;28;20299;-71
2021/03/07 09:35:26;;;;;;;8.18;5.82;;;5.90;67.30;;;;;;5073451;28;20261;-71
2021/03/07 09:37:56;;;;;;;10.73;7.53;;;5.90;67.20;;;;;;5072614;28;20063;-70
2021/03/07 09:40:22;;;;;;;11.13;5.97;;;6.00;67.30;;;;;;5073324;28;20783;-70
2021/03/07 09:43:07;;;;;;;9.97;7.27;;;6.00;66.80;;;;;;5073555;28;20374;-70
2021/03/07 09:45:37;;;;;;;14.87;7.77;;;6.00;67.20;;;;;;5072817;28;20295;-70
2021/03/07 09:48:03;;;;;;;11.00;7.97;;;6.00;66.70;;;;;;5073068;28;20305;-71
2021/03/07 09:50:29;;;;;;;8.97;7.13;;;6.10;66.70;;;;;;5073380;28;20389;-70
2021/03/07 09:52:55;;;;;;;9.30;7.30;;;6.10;66.50;;;;;;5072155;28;20406;-69
2021/03/07 09:55:25;;;;;;;8.33;7.33;;;6.20;66.50;;;;;;5073283;28;20396;-71
2021/03/07 09:58:01;;;;;;;9.67;6.80;;;6.30;66.40;;;;;;5073008;28;20105;-72
2021/03/07 10:00:31;;;;;;;9.07;7.30;;;6.40;66.00;;;;;;5072956;28;20299;-71
2021/03/07 10:02:58;;;;;;;9.77;7.80;;;6.50;65.90;;;;;;5072909;28;20822;-71
2021/03/07 10:05:23;;;;;;;9.17;7.60;;;6.60;65.70;;;;;;5072693;28;20766;-71
2021/03/07 10:07:49;;;;;;;9.20;7.50;;;6.60;65.60;;;;;;5073029;28;20352;-72
2021/03/07 10:10:24;;;;;;;9.60;8.03;;;6.60;65.10;;;;;;5072716;28;20475;-70
2021/03/07 10:12:56;;;;;;;11.73;7.50;;;6.70;65.00;;;;;;5054713;28;20057;-72
2021/03/07 10:15:31;;;;;;;8.93;8.03;;;6.70;64.70;;;;;;5070311;28;20318;-71
2021/03/07 10:18:00;;;;;;;9.07;7.83;;;6.70;64.50;;;;;;5069636;28;20352;-71
2021/03/07 10:20:38;;;;;;;8.87;7.50;;;6.80;64.50;;;;;;5071763;28;20356;-70
2021/03/07 10:23:03;;;;;;;14.80;8.00;;;6.80;64.30;;;;;;5070522;28;20294;-71
2021/03/07 10:25:48;;;;;;;10.30;8.00;;;6.90;64.20;;;;;;5072756;28;20307;-73
2021/03/07 10:28:34;;;;;;;12.20;7.77;;;7.00;63.90;;;;;;5071292;28;20354;-71
2021/03/07 10:31:11;;;;;;;12.97;7.90;;;7.00;63.60;;;;;;5069889;28;20782;-71
2021/03/07 10:33:37;;;;;;;10.13;7.47;;;7.10;64.00;;;;;;5068776;28;20787;-72
2021/03/07 10:36:07;;;;;;;9.07;7.83;;;7.20;63.90;;;;;;5071783;28;20302;-72
2021/03/07 10:38:50;;;;;;;11.43;8.73;;;7.20;63.60;;;;;;5071926;28;20372;-72
2021/03/07 10:41:24;;;;;;;13.73;8.47;;;7.30;62.60;;;;;;5071279;28;20295;-72
2021/03/07 10:43:51;;;;;;;9.80;8.20;;;7.30;62.80;;;;;;5071754;28;20762;-70
2021/03/07 10:46:38;;;;;;;9.70;7.80;;;7.40;62.40;;;;;;5066207;28;20675;-73
2021/03/07 10:49:05;;;;;;;11.67;8.50;;;7.40;62.50;;;;;;5069062;28;20306;-72
2021/03/07 10:51:31;;;;;;;10.63;8.47;;;7.50;62.60;;;;;;5072155;28;20297;-72
2021/03/07 10:53:57;;;;;;;10.87;9.23;;;7.60;62.10;;;;;;5068900;28;20302;-71
2021/03/07 10:56:34;;;;;;;12.43;8.63;;;7.70;61.50;;;;;;5070904;28;20476;-72
2021/03/07 10:59:00;;;;;;;11.03;8.63;;;7.70;60.90;;;;;;5069283;28;20693;-73
2021/03/07 11:01:26;;;;;;;10.30;8.33;;;7.70;60.60;;;;;;5071428;28;20659;-72
2021/03/07 11:03:52;;;;;;;13.70;9.00;;;7.70;61.00;;;;;;5070556;28;20322;-72
2021/03/07 11:06:19;;;;;;;9.83;8.80;;;7.70;61.10;;;;;;5071584;28;20064;-72
2021/03/07 11:08:49;;;;;;;11.63;8.63;;;7.80;61.60;;;;;;5070610;28;20173;-71
2021/03/07 11:11:15;;;;;;;10.13;8.93;;;7.90;61.40;;;;;;5071168;28;20298;-72
2021/03/07 11:13:41;;;;;;;10.07;8.87;;;8.00;61.10;;;;;;5071448;28;20660;-72
2021/03/07 11:16:07;;;;;;;9.93;8.47;;;8.00;60.70;;;;;;5070559;28;20314;-71
2021/03/07 11:18:33;;;;;;;10.13;7.87;;;8.20;61.00;;;;;;5071541;28;20550;-70
2021/03/07 11:21:00;;;;;;;9.97;9.00;;;8.30;60.80;;;;;;5068423;28;20302;-72
2021/03/07 11:23:25;;;;;;;12.27;10.17;;;8.40;60.50;;;;;;5070632;28;20044;-71
2021/03/07 11:25:51;;;;;;;11.23;10.00;;;8.40;60.00;;;;;;5071287;28;20310;-71
2021/03/07 11:28:16;;;;;;;12.33;10.60;;;8.50;59.70;;;;;;5070904;28;20436;-72
2021/03/07 11:30:43;;;;;;;13.23;10.53;;;8.40;59.30;;;;;;5070168;28;20037;-72
2021/03/07 11:33:09;;;;;;;11.73;9.37;;;8.40;59.30;;;;;;5071281;28;20127;-71
2021/03/07 11:35:35;;;;;;;11.63;9.73;;;8.40;59.30;;;;;;5071240;28;20841;-74
2021/03/07 11:38:00;;;;;;;13.40;10.77;;;8.30;59.50;;;;;;5069985;28;20137;-72
2021/03/07 11:40:27;;;;;;;12.23;9.47;;;8.40;59.50;;;;;;5071209;28;20335;-73
2021/03/07 11:42:54;;;;;;;11.90;9.70;;;8.40;59.40;;;;;;5070930;28;20115;-73
2021/03/07 11:45:20;;;;;;;12.80;9.63;;;8.30;59.10;;;;;;5065061;28;20334;-73
2021/03/07 11:47:46;;;;;;;11.33;9.57;;;8.30;59.30;;;;;;5070971;28;20326;-74
2021/03/07 11:50:13;;;;;;;13.80;10.60;;;8.30;59.50;;;;;;5071141;28;20055;-72
2021/03/07 11:52:38;;;;;;;10.77;8.23;;;8.20;59.30;;;;;;5070344;28;20044;-71
2021/03/07 11:55:05;;;;;;;11.60;10.20;;;8.20;59.50;;;;;;5070865;28;20320;-71
2021/03/07 11:57:31;;;;;;;14.40;10.23;;;8.10;59.40;;;;;;5069746;28;20040;-75
2021/03/07 11:59:56;;;;;;;13.17;10.10;;;8.20;59.30;;;;;;5070036;28;20360;-68
2021/03/07 12:02:22;;;;;;;13.33;9.93;;;8.10;59.30;;;;;;5070714;28;20040;-71
2021/03/07 12:04:48;;;;;;;11.80;10.20;;;8.10;59.50;;;;;;5070732;28;20481;-72
2021/03/07 12:07:13;;;;;;;13.03;10.97;;;8.30;59.30;;;;;;5070180;28;20389;-71
2021/03/07 12:09:39;;;;;;;13.70;8.83;;;8.40;59.10;;;;;;5071015;28;20109;-73
2021/03/07 12:12:06;;;;;;;11.63;9.60;;;8.40;58.80;;;;;;5070333;28;20052;-73
2021/03/07 12:14:32;;;;;;;14.77;11.83;;;8.40;58.80;;;;;;5070962;28;20056;-73
2021/03/07 12:16:58;;;;;;;13.57;9.77;;;8.40;59.20;;;;;;5071063;28;20653;-77
2021/03/07 12:19:24;;;;;;;14.07;11.33;;;8.40;59.00;;;;;;5070265;28;20574;-74
2021/03/07 12:21:50;;;;;;;13.63;11.10;;;8.50;58.90;;;;;;5070844;28;20328;-74
2021/03/07 12:24:16;;;;;;;14.20;11.70;;;8.50;59.00;;;;;;5070893;28;20124;-72
2021/03/07 12:26:42;;;;;;;14.73;12.77;;;8.50;58.70;;;;;;5070145;28;20302;-75
2021/03/07 12:29:08;;;;;;;14.43;12.03;;;8.30;58.50;;;;;;5070538;28;20302;-71
2021/03/07 12:31:33;;;;;;;13.47;12.07;;;8.30;59.00;;;;;;5070662;28;20075;-70
2021/03/07 12:33:59;;;;;;;16.77;13.53;;;8.30;59.30;;;;;;5070148;28;20507;-70
2021/03/07 12:36:27;;;;;;;18.87;13.00;;;8.30;59.30;;;;;;5070744;28;20072;-69
2021/03/07 12:38:53;;;;;;;16.90;13.17;;;8.20;59.20;;;;;;5070674;28;20326;-72
2021/03/07 12:41:19;;;;;;;15.63;13.70;;;8.20;59.20;;;;;;5070080;28;20052;-71
2021/03/07 12:43:45;;;;;;;14.10;11.63;;;8.10;59.10;;;;;;5070485;28;20805;-71
2021/03/07 12:46:11;;;;;;;15.63;13.10;;;8.00;59.60;;;;;;5070587;28;20307;-71
2021/03/07 12:48:36;;;;;;;18.40;14.03;;;8.00;59.70;;;;;;5069820;28;20534;-71
2021/03/07 12:51:03;;;;;;;14.87;13.00;;;7.90;59.70;;;;;;5070209;28;20052;-71
2021/03/07 12:53:29;;;;;;;18.60;14.80;;;7.90;59.80;;;;;;5070321;28;20477;-72
2021/03/07 12:55:55;;;;;;;14.63;11.77;;;7.80;60.10;;;;;;5069399;28;20322;-72
2021/03/07 12:58:21;;;;;;;15.83;14.13;;;7.80;60.40;;;;;;5070226;28;20234;-71
2021/03/07 13:00:46;;;;;;;18.20;13.00;;;7.80;60.50;;;;;;5070345;28;20309;-71
2021/03/07 13:03:12;;;;;;;16.70;13.30;;;7.90;60.80;;;;;;5069498;28;20093;-71
2021/03/07 13:05:37;;;;;;;16.37;13.83;;;7.90;60.80;;;;;;5070536;28;20072;-71